sensor_id;sensor_type;location;lat;lon;timestamp;temperature;humidity
11087;DHT22;5597;47.588;9.642;2022-12-18T00:01:50;-5.70;99.90
11087;DHT22;5597;47.588;9.642;2022-12-18T00:04:22;-5.70;99.90
11087;DHT22;5597;47.588;9.642;2022-12-18T00:06:48;-5.60;99.90
11087;DHT22;5597;47.588;9.642;2022-12-18T00:09:13;-5.60;99.90
11087;DHT22;5597;47.588;9.642;2022-12-18T00:11:39;-5.60;99.90
11087;DHT22;5597;47.588;9.642;2022-12-18T00:14:04;-5.50;99.90
11087;DHT22;5597;47.588;9.642;2022-12-18T00:16:30;-5.50;99.90
11087;DHT22;5597;47.588;9.642;2022-12-18T00:18:59;-5.50;99.90
11087;DHT22;5597;47.588;9.642;2022-12-18T00:21:25;-5.40;99.90
11087;DHT22;5597;47.588;9.642;2022-12-18T00:23:52;-5.40;99.90
11087;DHT22;5597;47.588;9.642;2022-12-18T00:26:23;-5.40;99.90
11087;DHT22;5597;47.588;9.642;2022-12-18T00:28:49;-5.30;99.90
11087;DHT22;5597;47.588;9.642;2022-12-18T00:31:19;-5.30;99.90
11087;DHT22;5597;47.588;9.642;2022-12-18T00:33:45;-5.20;99.90
11087;DHT22;5597;47.588;9.642;2022-12-18T00:36:17;-5.20;99.90
11087;DHT22;5597;47.588;9.642;2022-12-18T00:38:44;-5.20;99.90
11087;DHT22;5597;47.588;9.642;2022-12-18T00:41:11;-5.20;99.90
11087;DHT22;5597;47.588;9.642;2022-12-18T00:43:38;-5.20;99.90
11087;DHT22;5597;47.588;9.642;2022-12-18T00:46:04;-5.20;99.90
11087;DHT22;5597;47.588;9.642;2022-12-18T00:48:30;-5.20;99.90
11087;DHT22;5597;47.588;9.642;2022-12-18T00:50:55;-5.20;99.90
11087;DHT22;5597;47.588;9.642;2022-12-18T00:53:21;-5.20;99.90
11087;DHT22;5597;47.588;9.642;2022-12-18T00:55:47;-5.20;99.90
11087;DHT22;5597;47.588;9.642;2022-12-18T00:58:14;-5.20;99.90
11087;DHT22;5597;47.588;9.642;2022-12-18T01:00:41;-5.20;99.90
11087;DHT22;5597;47.588;9.642;2022-12-18T01:03:07;-5.10;99.90
11087;DHT22;5597;47.588;9.642;2022-12-18T01:05:33;-5.10;99.90
11087;DHT22;5597;47.588;9.642;2022-12-18T01:07:59;-5.10;99.90
11087;DHT22;5597;47.588;9.642;2022-12-18T01:10:25;-5.10;99.90
11087;DHT22;5597;47.588;9.642;2022-12-18T01:12:51;-5.00;99.90
11087;DHT22;5597;47.588;9.642;2022-12-18T01:15:17;-5.00;99.90
11087;DHT22;5597;47.588;9.642;2022-12-18T01:17:43;-5.00;99.90
11087;DHT22;5597;47.588;9.642;2022-12-18T01:20:11;-5.00;99.90
11087;DHT22;5597;47.588;9.642;2022-12-18T01:22:36;-5.00;99.90
11087;DHT22;5597;47.588;9.642;2022-12-18T01:25:03;-5.00;99.90
11087;DHT22;5597;47.588;9.642;2022-12-18T01:27:29;-5.00;99.90
11087;DHT22;5597;47.588;9.642;2022-12-18T01:29:55;-5.00;99.90
11087;DHT22;5597;47.588;9.642;2022-12-18T01:32:21;-5.00;99.90
11087;DHT22;5597;47.588;9.642;2022-12-18T01:34:47;-5.00;99.90
11087;DHT22;5597;47.588;9.642;2022-12-18T01:37:13;-5.00;99.90
11087;DHT22;5597;47.588;9.642;2022-12-18T01:39:38;-5.00;99.90
11087;DHT22;5597;47.588;9.642;2022-12-18T01:42:13;-5.00;99.90
11087;DHT22;5597;47.588;9.642;2022-12-18T01:47:33;-5.00;99.90
11087;DHT22;5597;47.588;9.642;2022-12-18T01:50:11;-5.00;99.90
11087;DHT22;5597;47.588;9.642;2022-12-18T01:52:38;-5.00;99.90
11087;DHT22;5597;47.588;9.642;2022-12-18T01:55:06;-4.90;99.90
11087;DHT22;5597;47.588;9.642;2022-12-18T01:57:32;-5.00;99.90
11087;DHT22;5597;47.588;9.642;2022-12-18T02:00:03;-5.00;99.90
11087;DHT22;5597;47.588;9.642;2022-12-18T02:02:29;-5.00;99.90
11087;DHT22;5597;47.588;9.642;2022-12-18T02:04:55;-5.00;99.90
11087;DHT22;5597;47.588;9.642;2022-12-18T02:07:45;-5.00;99.90
11087;DHT22;5597;47.588;9.642;2022-12-18T02:13:20;-5.00;99.90
11087;DHT22;5597;47.588;9.642;2022-12-18T02:16:03;-4.90;99.90
11087;DHT22;5597;47.588;9.642;2022-12-18T02:18:35;-5.00;99.90
11087;DHT22;5597;47.588;9.642;2022-12-18T02:21:08;-5.00;99.90
11087;DHT22;5597;47.588;9.642;2022-12-18T02:26:18;-5.00;99.90
11087;DHT22;5597;47.588;9.642;2022-12-18T02:29:09;-5.00;99.90
11087;DHT22;5597;47.588;9.642;2022-12-18T02:31:39;-5.00;99.90
11087;DHT22;5597;47.588;9.642;2022-12-18T02:34:07;-5.00;99.90
11087;DHT22;5597;47.588;9.642;2022-12-18T02:36:37;-5.00;99.90
11087;DHT22;5597;47.588;9.642;2022-12-18T02:39:05;-5.00;99.90
11087;DHT22;5597;47.588;9.642;2022-12-18T02:41:32;-5.00;99.90
11087;DHT22;5597;47.588;9.642;2022-12-18T02:44:08;-5.00;99.90
11087;DHT22;5597;47.588;9.642;2022-12-18T02:46:40;-5.00;99.90
11087;DHT22;5597;47.588;9.642;2022-12-18T03:03:34;-4.90;99.90
11087;DHT22;5597;47.588;9.642;2022-12-18T03:06:05;-4.90;99.90
11087;DHT22;5597;47.588;9.642;2022-12-18T03:08:46;-5.00;99.90
11087;DHT22;5597;47.588;9.642;2022-12-18T03:11:14;-4.90;99.90
11087;DHT22;5597;47.588;9.642;2022-12-18T03:13:58;-5.00;99.90
11087;DHT22;5597;47.588;9.642;2022-12-18T03:16:27;-5.00;99.90
11087;DHT22;5597;47.588;9.642;2022-12-18T03:19:08;-5.00;99.90
11087;DHT22;5597;47.588;9.642;2022-12-18T03:21:45;-5.00;99.90
11087;DHT22;5597;47.588;9.642;2022-12-18T03:24:11;-5.00;99.90
11087;DHT22;5597;47.588;9.642;2022-12-18T03:26:42;-5.00;99.90
11087;DHT22;5597;47.588;9.642;2022-12-18T03:29:14;-5.00;99.90
11087;DHT22;5597;47.588;9.642;2022-12-18T03:31:48;-5.00;99.90
11087;DHT22;5597;47.588;9.642;2022-12-18T03:34:17;-5.00;99.90
11087;DHT22;5597;47.588;9.642;2022-12-18T03:36:45;-5.00;99.90
11087;DHT22;5597;47.588;9.642;2022-12-18T03:39:10;-4.90;99.90
11087;DHT22;5597;47.588;9.642;2022-12-18T03:44:53;-5.00;99.90
11087;DHT22;5597;47.588;9.642;2022-12-18T03:47:42;-5.00;99.90
11087;DHT22;5597;47.588;9.642;2022-12-18T03:50:19;-5.00;99.90
11087;DHT22;5597;47.588;9.642;2022-12-18T03:55:38;-5.00;99.90
11087;DHT22;5597;47.588;9.642;2022-12-18T03:58:07;-5.00;99.90
11087;DHT22;5597;47.588;9.642;2022-12-18T04:00:34;-5.00;99.90
11087;DHT22;5597;47.588;9.642;2022-12-18T04:03:00;-5.00;99.90
11087;DHT22;5597;47.588;9.642;2022-12-18T04:05:28;-5.00;99.90
11087;DHT22;5597;47.588;9.642;2022-12-18T04:07:55;-5.00;99.90
11087;DHT22;5597;47.588;9.642;2022-12-18T04:10:22;-5.00;99.90
11087;DHT22;5597;47.588;9.642;2022-12-18T04:12:47;-5.00;99.90
11087;DHT22;5597;47.588;9.642;2022-12-18T04:15:13;-5.00;99.90
11087;DHT22;5597;47.588;9.642;2022-12-18T04:17:46;-5.10;99.90
11087;DHT22;5597;47.588;9.642;2022-12-18T04:20:12;-5.00;99.90
11087;DHT22;5597;47.588;9.642;2022-12-18T04:22:38;-5.00;99.90
11087;DHT22;5597;47.588;9.642;2022-12-18T04:25:04;-5.00;99.90
11087;DHT22;5597;47.588;9.642;2022-12-18T04:27:30;-5.00;99.90
11087;DHT22;5597;47.588;9.642;2022-12-18T04:29:55;-5.00;99.90
11087;DHT22;5597;47.588;9.642;2022-12-18T04:32:21;-5.00;99.90
11087;DHT22;5597;47.588;9.642;2022-12-18T04:34:46;-5.00;99.90
11087;DHT22;5597;47.588;9.642;2022-12-18T04:37:12;-5.00;99.90
11087;DHT22;5597;47.588;9.642;2022-12-18T04:39:38;-5.00;99.90
11087;DHT22;5597;47.588;9.642;2022-12-18T04:42:04;-5.00;99.90
11087;DHT22;5597;47.588;9.642;2022-12-18T04:44:30;-5.00;99.90
11087;DHT22;5597;47.588;9.642;2022-12-18T04:46:55;-5.00;99.90
11087;DHT22;5597;47.588;9.642;2022-12-18T04:49:21;-5.00;99.90
11087;DHT22;5597;47.588;9.642;2022-12-18T04:51:46;-4.90;99.90
11087;DHT22;5597;47.588;9.642;2022-12-18T04:54:12;-4.90;99.90
11087;DHT22;5597;47.588;9.642;2022-12-18T04:56:37;-4.90;99.90
11087;DHT22;5597;47.588;9.642;2022-12-18T04:59:03;-5.00;99.90
11087;DHT22;5597;47.588;9.642;2022-12-18T05:01:29;-5.00;99.90
11087;DHT22;5597;47.588;9.642;2022-12-18T05:03:54;-5.00;99.90
11087;DHT22;5597;47.588;9.642;2022-12-18T05:06:20;-5.00;99.90
11087;DHT22;5597;47.588;9.642;2022-12-18T05:08:45;-5.00;99.90
11087;DHT22;5597;47.588;9.642;2022-12-18T05:11:13;-5.00;99.90
11087;DHT22;5597;47.588;9.642;2022-12-18T05:13:41;-5.00;99.90
11087;DHT22;5597;47.588;9.642;2022-12-18T05:16:08;-5.00;99.90
11087;DHT22;5597;47.588;9.642;2022-12-18T05:18:34;-5.00;99.90
11087;DHT22;5597;47.588;9.642;2022-12-18T05:21:00;-5.00;99.90
11087;DHT22;5597;47.588;9.642;2022-12-18T05:23:27;-5.00;99.90
11087;DHT22;5597;47.588;9.642;2022-12-18T05:25:58;-5.00;99.90
11087;DHT22;5597;47.588;9.642;2022-12-18T05:28:25;-5.00;99.90
11087;DHT22;5597;47.588;9.642;2022-12-18T05:30:54;-5.00;99.90
11087;DHT22;5597;47.588;9.642;2022-12-18T05:33:21;-4.90;99.90
11087;DHT22;5597;47.588;9.642;2022-12-18T05:35:51;-5.00;99.90
11087;DHT22;5597;47.588;9.642;2022-12-18T05:38:18;-4.90;99.90
11087;DHT22;5597;47.588;9.642;2022-12-18T05:40:44;-5.00;99.90
11087;DHT22;5597;47.588;9.642;2022-12-18T05:43:10;-5.00;99.90
11087;DHT22;5597;47.588;9.642;2022-12-18T05:45:40;-5.00;99.90
11087;DHT22;5597;47.588;9.642;2022-12-18T05:48:07;-5.00;99.90
11087;DHT22;5597;47.588;9.642;2022-12-18T05:50:37;-5.00;99.90
11087;DHT22;5597;47.588;9.642;2022-12-18T05:53:03;-5.00;99.90
11087;DHT22;5597;47.588;9.642;2022-12-18T05:55:32;-5.10;99.90
11087;DHT22;5597;47.588;9.642;2022-12-18T05:57:57;-5.00;99.90
11087;DHT22;5597;47.588;9.642;2022-12-18T06:00:23;-5.10;99.90
11087;DHT22;5597;47.588;9.642;2022-12-18T06:02:49;-5.10;99.90
11087;DHT22;5597;47.588;9.642;2022-12-18T06:05:14;-5.10;99.90
11087;DHT22;5597;47.588;9.642;2022-12-18T06:07:40;-5.10;99.90
11087;DHT22;5597;47.588;9.642;2022-12-18T06:10:06;-5.10;99.90
11087;DHT22;5597;47.588;9.642;2022-12-18T06:12:32;-5.10;99.90
11087;DHT22;5597;47.588;9.642;2022-12-18T06:14:59;-5.10;99.90
11087;DHT22;5597;47.588;9.642;2022-12-18T06:17:29;-5.10;99.90
11087;DHT22;5597;47.588;9.642;2022-12-18T06:19:55;-5.10;99.90
11087;DHT22;5597;47.588;9.642;2022-12-18T06:22:20;-5.20;99.90
11087;DHT22;5597;47.588;9.642;2022-12-18T06:24:46;-5.20;99.90
11087;DHT22;5597;47.588;9.642;2022-12-18T06:27:11;-5.20;99.90
11087;DHT22;5597;47.588;9.642;2022-12-18T06:29:37;-5.20;99.90
11087;DHT22;5597;47.588;9.642;2022-12-18T06:32:03;-5.20;99.90
11087;DHT22;5597;47.588;9.642;2022-12-18T06:34:28;-5.20;99.90
11087;DHT22;5597;47.588;9.642;2022-12-18T06:36:54;-5.30;99.90
11087;DHT22;5597;47.588;9.642;2022-12-18T06:39:20;-5.20;99.90
11087;DHT22;5597;47.588;9.642;2022-12-18T06:41:45;-5.30;99.90
11087;DHT22;5597;47.588;9.642;2022-12-18T06:44:11;-5.30;99.90
11087;DHT22;5597;47.588;9.642;2022-12-18T06:46:37;-5.30;99.90
11087;DHT22;5597;47.588;9.642;2022-12-18T06:49:03;-5.30;99.90
11087;DHT22;5597;47.588;9.642;2022-12-18T06:51:29;-5.30;99.90
11087;DHT22;5597;47.588;9.642;2022-12-18T06:53:54;-5.30;99.90
11087;DHT22;5597;47.588;9.642;2022-12-18T06:56:20;-5.30;99.90
11087;DHT22;5597;47.588;9.642;2022-12-18T06:58:46;-5.40;99.90
11087;DHT22;5597;47.588;9.642;2022-12-18T07:01:12;-5.40;99.90
11087;DHT22;5597;47.588;9.642;2022-12-18T07:03:39;-5.40;99.90
11087;DHT22;5597;47.588;9.642;2022-12-18T07:06:05;-5.40;99.90
11087;DHT22;5597;47.588;9.642;2022-12-18T07:08:32;-5.50;99.90
11087;DHT22;5597;47.588;9.642;2022-12-18T07:10:57;-5.50;99.90
11087;DHT22;5597;47.588;9.642;2022-12-18T07:13:23;-5.50;99.90
11087;DHT22;5597;47.588;9.642;2022-12-18T07:15:49;-5.50;99.90
11087;DHT22;5597;47.588;9.642;2022-12-18T07:18:15;-5.50;99.90
11087;DHT22;5597;47.588;9.642;2022-12-18T07:20:40;-5.50;99.90
11087;DHT22;5597;47.588;9.642;2022-12-18T07:23:06;-5.50;99.90
11087;DHT22;5597;47.588;9.642;2022-12-18T07:25:35;-5.50;99.90
11087;DHT22;5597;47.588;9.642;2022-12-18T07:28:01;-5.40;99.90
11087;DHT22;5597;47.588;9.642;2022-12-18T07:30:27;-5.40;99.90
11087;DHT22;5597;47.588;9.642;2022-12-18T07:32:53;-5.40;99.90
11087;DHT22;5597;47.588;9.642;2022-12-18T07:35:18;-5.40;99.90
11087;DHT22;5597;47.588;9.642;2022-12-18T07:37:44;-5.40;99.90
11087;DHT22;5597;47.588;9.642;2022-12-18T07:40:10;-5.30;99.90
11087;DHT22;5597;47.588;9.642;2022-12-18T07:42:36;-5.30;99.90
11087;DHT22;5597;47.588;9.642;2022-12-18T07:45:03;-5.30;99.90
11087;DHT22;5597;47.588;9.642;2022-12-18T07:47:29;-5.20;99.90
11087;DHT22;5597;47.588;9.642;2022-12-18T07:49:54;-5.20;99.90
11087;DHT22;5597;47.588;9.642;2022-12-18T07:52:20;-5.10;99.90
11087;DHT22;5597;47.588;9.642;2022-12-18T07:54:46;-5.10;99.90
11087;DHT22;5597;47.588;9.642;2022-12-18T07:57:16;-5.00;99.90
11087;DHT22;5597;47.588;9.642;2022-12-18T07:59:42;-5.00;99.90
11087;DHT22;5597;47.588;9.642;2022-12-18T08:02:07;-5.00;99.90
11087;DHT22;5597;47.588;9.642;2022-12-18T08:04:33;-4.90;99.90
11087;DHT22;5597;47.588;9.642;2022-12-18T08:06:59;-4.90;99.90
11087;DHT22;5597;47.588;9.642;2022-12-18T08:09:24;-4.80;99.90
11087;DHT22;5597;47.588;9.642;2022-12-18T08:11:50;-4.80;99.90
11087;DHT22;5597;47.588;9.642;2022-12-18T08:14:15;-4.70;99.90
11087;DHT22;5597;47.588;9.642;2022-12-18T08:16:41;-4.60;99.90
11087;DHT22;5597;47.588;9.642;2022-12-18T08:19:07;-4.60;99.90
11087;DHT22;5597;47.588;9.642;2022-12-18T08:21:32;-4.50;99.90
11087;DHT22;5597;47.588;9.642;2022-12-18T08:23:59;-4.40;99.90
11087;DHT22;5597;47.588;9.642;2022-12-18T08:26:27;-4.40;99.90
11087;DHT22;5597;47.588;9.642;2022-12-18T08:28:55;-4.30;99.90
11087;DHT22;5597;47.588;9.642;2022-12-18T08:31:21;-4.20;99.90
11087;DHT22;5597;47.588;9.642;2022-12-18T08:33:48;-4.20;99.90
11087;DHT22;5597;47.588;9.642;2022-12-18T08:36:14;-4.10;99.90
11087;DHT22;5597;47.588;9.642;2022-12-18T08:38:40;-4.00;99.90
11087;DHT22;5597;47.588;9.642;2022-12-18T08:41:10;-3.90;99.90
11087;DHT22;5597;47.588;9.642;2022-12-18T08:43:36;-3.70;99.90
11087;DHT22;5597;47.588;9.642;2022-12-18T08:46:21;-3.60;99.90
11087;DHT22;5597;47.588;9.642;2022-12-18T08:48:47;-3.50;99.90
11087;DHT22;5597;47.588;9.642;2022-12-18T08:51:15;-3.40;99.90
11087;DHT22;5597;47.588;9.642;2022-12-18T08:53:40;-3.30;99.90
11087;DHT22;5597;47.588;9.642;2022-12-18T08:56:07;-3.30;99.90
11087;DHT22;5597;47.588;9.642;2022-12-18T08:58:32;-3.20;99.90
11087;DHT22;5597;47.588;9.642;2022-12-18T09:01:05;-3.10;99.90
11087;DHT22;5597;47.588;9.642;2022-12-18T09:03:31;-3.10;99.90
11087;DHT22;5597;47.588;9.642;2022-12-18T09:05:58;-3.00;99.90
11087;DHT22;5597;47.588;9.642;2022-12-18T09:08:23;-3.00;99.90
11087;DHT22;5597;47.588;9.642;2022-12-18T09:10:50;-3.10;99.90
11087;DHT22;5597;47.588;9.642;2022-12-18T09:13:16;-3.10;99.90
11087;DHT22;5597;47.588;9.642;2022-12-18T09:15:50;-3.10;99.90
11087;DHT22;5597;47.588;9.642;2022-12-18T09:18:18;-3.00;99.90
11087;DHT22;5597;47.588;9.642;2022-12-18T09:20:45;-3.00;99.90
11087;DHT22;5597;47.588;9.642;2022-12-18T09:23:11;-3.00;99.90
11087;DHT22;5597;47.588;9.642;2022-12-18T09:25:37;-3.00;99.90
11087;DHT22;5597;47.588;9.642;2022-12-18T09:28:14;-3.10;99.90
11087;DHT22;5597;47.588;9.642;2022-12-18T09:30:42;-3.00;99.90
11087;DHT22;5597;47.588;9.642;2022-12-18T09:33:08;-3.00;99.90
11087;DHT22;5597;47.588;9.642;2022-12-18T09:35:36;-2.90;99.90
11087;DHT22;5597;47.588;9.642;2022-12-18T09:38:02;-2.80;99.90
11087;DHT22;5597;47.588;9.642;2022-12-18T09:40:35;-2.80;99.90
11087;DHT22;5597;47.588;9.642;2022-12-18T09:43:04;-2.70;99.90
11087;DHT22;5597;47.588;9.642;2022-12-18T09:45:43;-2.60;99.90
11087;DHT22;5597;47.588;9.642;2022-12-18T09:48:25;-2.60;99.90
11087;DHT22;5597;47.588;9.642;2022-12-18T09:50:55;-2.60;99.90
11087;DHT22;5597;47.588;9.642;2022-12-18T09:53:27;-2.50;99.90
11087;DHT22;5597;47.588;9.642;2022-12-18T09:55:54;-2.50;99.90
11087;DHT22;5597;47.588;9.642;2022-12-18T10:01:22;-2.50;99.90
11087;DHT22;5597;47.588;9.642;2022-12-18T10:03:49;-2.40;99.90
11087;DHT22;5597;47.588;9.642;2022-12-18T10:11:52;-2.20;99.90
11087;DHT22;5597;47.588;9.642;2022-12-18T10:14:40;-2.10;99.90
11087;DHT22;5597;47.588;9.642;2022-12-18T10:23:14;-2.00;99.90
11087;DHT22;5597;47.588;9.642;2022-12-18T10:28:26;-1.90;99.90
11087;DHT22;5597;47.588;9.642;2022-12-18T10:30:52;-1.90;99.90
11087;DHT22;5597;47.588;9.642;2022-12-18T10:33:23;-2.00;99.90
11087;DHT22;5597;47.588;9.642;2022-12-18T10:35:52;-1.90;99.90
11087;DHT22;5597;47.588;9.642;2022-12-18T10:41:05;-1.90;99.90
11087;DHT22;5597;47.588;9.642;2022-12-18T10:43:33;-1.80;99.90
11087;DHT22;5597;47.588;9.642;2022-12-18T10:51:06;-1.60;99.90
11087;DHT22;5597;47.588;9.642;2022-12-18T10:53:34;-1.60;99.90
11087;DHT22;5597;47.588;9.642;2022-12-18T10:56:03;-1.60;99.90
11087;DHT22;5597;47.588;9.642;2022-12-18T10:58:30;-1.60;99.90
11087;DHT22;5597;47.588;9.642;2022-12-18T11:01:17;-1.60;99.90
11087;DHT22;5597;47.588;9.642;2022-12-18T11:03:47;-1.60;99.90
11087;DHT22;5597;47.588;9.642;2022-12-18T11:06:24;-1.50;99.90
11087;DHT22;5597;47.588;9.642;2022-12-18T11:09:05;-1.50;99.90
11087;DHT22;5597;47.588;9.642;2022-12-18T11:11:32;-1.50;99.90
11087;DHT22;5597;47.588;9.642;2022-12-18T11:14:03;-1.40;99.90
11087;DHT22;5597;47.588;9.642;2022-12-18T11:16:33;-1.30;99.90
11087;DHT22;5597;47.588;9.642;2022-12-18T11:22:00;-1.10;99.90
11087;DHT22;5597;47.588;9.642;2022-12-18T11:24:30;-1.00;99.90
11087;DHT22;5597;47.588;9.642;2022-12-18T11:26:59;-1.00;99.90
11087;DHT22;5597;47.588;9.642;2022-12-18T11:29:37;-1.00;99.90
11087;DHT22;5597;47.588;9.642;2022-12-18T11:34:45;-0.90;99.90
11087;DHT22;5597;47.588;9.642;2022-12-18T11:37:13;-0.80;99.90
11087;DHT22;5597;47.588;9.642;2022-12-18T11:39:49;-0.80;99.90
11087;DHT22;5597;47.588;9.642;2022-12-18T11:42:27;-0.80;99.90
11087;DHT22;5597;47.588;9.642;2022-12-18T11:45:00;-0.80;99.90
11087;DHT22;5597;47.588;9.642;2022-12-18T11:47:56;-0.70;99.90
11087;DHT22;5597;47.588;9.642;2022-12-18T11:50:38;-0.80;99.90
11087;DHT22;5597;47.588;9.642;2022-12-18T11:53:11;-0.70;99.90
11087;DHT22;5597;47.588;9.642;2022-12-18T11:55:58;-0.70;99.90
11087;DHT22;5597;47.588;9.642;2022-12-18T12:04:16;-0.80;99.90
11087;DHT22;5597;47.588;9.642;2022-12-18T12:09:37;-0.50;99.90
11087;DHT22;5597;47.588;9.642;2022-12-18T12:12:31;-0.40;99.90
11087;DHT22;5597;47.588;9.642;2022-12-18T12:15:17;-0.40;99.90
11087;DHT22;5597;47.588;9.642;2022-12-18T12:17:54;-0.40;99.90
11087;DHT22;5597;47.588;9.642;2022-12-18T12:23:16;-0.30;99.90
11087;DHT22;5597;47.588;9.642;2022-12-18T12:25:51;-0.40;99.90
11087;DHT22;5597;47.588;9.642;2022-12-18T12:31:25;-0.40;99.90
11087;DHT22;5597;47.588;9.642;2022-12-18T12:34:16;-0.40;99.90
11087;DHT22;5597;47.588;9.642;2022-12-18T12:39:39;-0.40;99.90
11087;DHT22;5597;47.588;9.642;2022-12-18T12:42:26;-0.40;99.90
11087;DHT22;5597;47.588;9.642;2022-12-18T12:45:28;-0.50;99.90
11087;DHT22;5597;47.588;9.642;2022-12-18T12:47:55;-0.50;99.90
11087;DHT22;5597;47.588;9.642;2022-12-18T12:50:23;-0.50;99.90
11087;DHT22;5597;47.588;9.642;2022-12-18T12:52:53;-0.50;99.90
11087;DHT22;5597;47.588;9.642;2022-12-18T12:55:25;-0.50;99.90
11087;DHT22;5597;47.588;9.642;2022-12-18T13:00:30;-0.60;99.90
11087;DHT22;5597;47.588;9.642;2022-12-18T13:03:23;-0.70;99.90
11087;DHT22;5597;47.588;9.642;2022-12-18T13:05:54;-0.70;99.90
11087;DHT22;5597;47.588;9.642;2022-12-18T13:08:27;-0.70;99.90
11087;DHT22;5597;47.588;9.642;2022-12-18T13:10:54;-0.70;99.90
11087;DHT22;5597;47.588;9.642;2022-12-18T13:16:19;-0.70;99.90
11087;DHT22;5597;47.588;9.642;2022-12-18T13:18:53;-0.70;99.90
11087;DHT22;5597;47.588;9.642;2022-12-18T13:21:33;-0.70;99.90
11087;DHT22;5597;47.588;9.642;2022-12-18T13:26:47;-0.80;99.90
11087;DHT22;5597;47.588;9.642;2022-12-18T13:29:43;-0.80;99.90
11087;DHT22;5597;47.588;9.642;2022-12-18T13:32:25;-0.90;99.90
11087;DHT22;5597;47.588;9.642;2022-12-18T13:37:53;-0.90;99.90
11087;DHT22;5597;47.588;9.642;2022-12-18T13:48:36;-0.90;99.90
11087;DHT22;5597;47.588;9.642;2022-12-18T13:51:08;-0.90;99.90
11087;DHT22;5597;47.588;9.642;2022-12-18T13:53:43;-1.00;99.90
11087;DHT22;5597;47.588;9.642;2022-12-18T13:56:18;-1.00;99.90
11087;DHT22;5597;47.588;9.642;2022-12-18T13:58:47;-1.10;99.90
11087;DHT22;5597;47.588;9.642;2022-12-18T14:01:28;-1.10;99.90
11087;DHT22;5597;47.588;9.642;2022-12-18T14:04:12;-1.20;99.90
11087;DHT22;5597;47.588;9.642;2022-12-18T14:06:43;-1.20;99.90
11087;DHT22;5597;47.588;9.642;2022-12-18T14:09:16;-1.30;99.90
11087;DHT22;5597;47.588;9.642;2022-12-18T14:11:47;-1.30;99.90
11087;DHT22;5597;47.588;9.642;2022-12-18T14:14:17;-1.30;99.90
11087;DHT22;5597;47.588;9.642;2022-12-18T14:16:44;-1.30;99.90
11087;DHT22;5597;47.588;9.642;2022-12-18T14:19:17;-1.40;99.90
11087;DHT22;5597;47.588;9.642;2022-12-18T14:21:47;-1.40;99.90
11087;DHT22;5597;47.588;9.642;2022-12-18T14:24:20;-1.50;99.90
11087;DHT22;5597;47.588;9.642;2022-12-18T14:26:47;-1.50;99.90
11087;DHT22;5597;47.588;9.642;2022-12-18T14:29:28;-1.50;99.90
11087;DHT22;5597;47.588;9.642;2022-12-18T14:32:13;-1.50;99.90
11087;DHT22;5597;47.588;9.642;2022-12-18T14:34:43;-1.50;99.90
11087;DHT22;5597;47.588;9.642;2022-12-18T14:37:14;-1.60;99.90
11087;DHT22;5597;47.588;9.642;2022-12-18T14:39:40;-1.70;99.90
11087;DHT22;5597;47.588;9.642;2022-12-18T14:42:17;-1.70;99.90
11087;DHT22;5597;47.588;9.642;2022-12-18T14:44:42;-1.80;99.90
11087;DHT22;5597;47.588;9.642;2022-12-18T14:47:14;-1.90;99.90
11087;DHT22;5597;47.588;9.642;2022-12-18T14:49:41;-2.00;99.90
11087;DHT22;5597;47.588;9.642;2022-12-18T14:52:25;-2.00;99.90
11087;DHT22;5597;47.588;9.642;2022-12-18T14:54:53;-2.10;99.90
11087;DHT22;5597;47.588;9.642;2022-12-18T14:57:28;-2.10;99.90
11087;DHT22;5597;47.588;9.642;2022-12-18T15:00:10;-2.10;99.90
11087;DHT22;5597;47.588;9.642;2022-12-18T15:02:40;-2.20;99.90
11087;DHT22;5597;47.588;9.642;2022-12-18T15:05:30;-2.20;99.90
11087;DHT22;5597;47.588;9.642;2022-12-18T15:07:58;-2.20;99.90
11087;DHT22;5597;47.588;9.642;2022-12-18T15:10:29;-2.30;99.90
11087;DHT22;5597;47.588;9.642;2022-12-18T15:23:43;-2.50;99.90
11087;DHT22;5597;47.588;9.642;2022-12-18T15:26:12;-2.60;99.90
11087;DHT22;5597;47.588;9.642;2022-12-18T15:28:49;-2.60;99.90
11087;DHT22;5597;47.588;9.642;2022-12-18T15:33:43;-2.70;99.90
11087;DHT22;5597;47.588;9.642;2022-12-18T15:36:15;-2.70;99.90
11087;DHT22;5597;47.588;9.642;2022-12-18T15:38:41;-2.70;99.90
11087;DHT22;5597;47.588;9.642;2022-12-18T15:41:15;-2.80;99.90
11087;DHT22;5597;47.588;9.642;2022-12-18T15:43:41;-2.70;99.90
11087;DHT22;5597;47.588;9.642;2022-12-18T15:46:11;-2.80;99.90
11087;DHT22;5597;47.588;9.642;2022-12-18T15:48:42;-2.80;99.90
11087;DHT22;5597;47.588;9.642;2022-12-18T15:51:24;-2.80;99.90
11087;DHT22;5597;47.588;9.642;2022-12-18T15:53:53;-2.80;99.90
11087;DHT22;5597;47.588;9.642;2022-12-18T15:56:19;-2.80;99.90
11087;DHT22;5597;47.588;9.642;2022-12-18T15:59:15;-2.90;99.90
11087;DHT22;5597;47.588;9.642;2022-12-18T16:01:42;-2.90;99.90
11087;DHT22;5597;47.588;9.642;2022-12-18T16:04:13;-3.00;99.90
11087;DHT22;5597;47.588;9.642;2022-12-18T16:06:39;-3.00;99.90
11087;DHT22;5597;47.588;9.642;2022-12-18T16:09:05;-3.10;99.90
11087;DHT22;5597;47.588;9.642;2022-12-18T16:11:32;-3.10;99.90
11087;DHT22;5597;47.588;9.642;2022-12-18T16:16:39;-3.20;99.90
11087;DHT22;5597;47.588;9.642;2022-12-18T16:19:04;-3.20;99.90
11087;DHT22;5597;47.588;9.642;2022-12-18T16:21:30;-3.30;99.90
11087;DHT22;5597;47.588;9.642;2022-12-18T16:23:55;-3.40;99.90
11087;DHT22;5597;47.588;9.642;2022-12-18T16:26:21;-3.40;99.90
11087;DHT22;5597;47.588;9.642;2022-12-18T16:28:47;-3.50;99.90
11087;DHT22;5597;47.588;9.642;2022-12-18T16:31:12;-3.60;99.90
11087;DHT22;5597;47.588;9.642;2022-12-18T16:33:38;-3.60;99.90
11087;DHT22;5597;47.588;9.642;2022-12-18T16:36:04;-3.70;99.90
11087;DHT22;5597;47.588;9.642;2022-12-18T16:38:29;-3.70;99.90
11087;DHT22;5597;47.588;9.642;2022-12-18T16:40:55;-3.70;99.90
11087;DHT22;5597;47.588;9.642;2022-12-18T16:43:39;-3.80;99.90
11087;DHT22;5597;47.588;9.642;2022-12-18T16:46:05;-3.80;99.90
11087;DHT22;5597;47.588;9.642;2022-12-18T16:48:31;-3.80;99.90
11087;DHT22;5597;47.588;9.642;2022-12-18T16:51:03;-3.90;99.90
11087;DHT22;5597;47.588;9.642;2022-12-18T16:53:29;-3.90;99.90
11087;DHT22;5597;47.588;9.642;2022-12-18T16:55:55;-4.00;99.90
11087;DHT22;5597;47.588;9.642;2022-12-18T16:58:21;-4.00;99.90
11087;DHT22;5597;47.588;9.642;2022-12-18T17:00:47;-4.10;99.90
11087;DHT22;5597;47.588;9.642;2022-12-18T17:03:13;-4.10;99.90
11087;DHT22;5597;47.588;9.642;2022-12-18T17:05:39;-4.20;99.90
11087;DHT22;5597;47.588;9.642;2022-12-18T17:08:05;-4.20;99.90
11087;DHT22;5597;47.588;9.642;2022-12-18T17:10:33;-4.20;99.90
11087;DHT22;5597;47.588;9.642;2022-12-18T17:12:59;-4.30;99.90
11087;DHT22;5597;47.588;9.642;2022-12-18T17:15:25;-4.30;99.90
11087;DHT22;5597;47.588;9.642;2022-12-18T17:17:51;-4.30;99.90
11087;DHT22;5597;47.588;9.642;2022-12-18T17:20:16;-4.30;99.90
11087;DHT22;5597;47.588;9.642;2022-12-18T17:22:42;-4.40;99.90
11087;DHT22;5597;47.588;9.642;2022-12-18T17:25:08;-4.30;99.90
11087;DHT22;5597;47.588;9.642;2022-12-18T17:27:33;-4.40;99.90
11087;DHT22;5597;47.588;9.642;2022-12-18T17:29:59;-4.30;99.90
11087;DHT22;5597;47.588;9.642;2022-12-18T17:32:24;-4.40;99.90
11087;DHT22;5597;47.588;9.642;2022-12-18T17:34:53;-4.40;99.90
11087;DHT22;5597;47.588;9.642;2022-12-18T17:37:18;-4.30;99.90
11087;DHT22;5597;47.588;9.642;2022-12-18T17:39:44;-4.40;99.90
11087;DHT22;5597;47.588;9.642;2022-12-18T17:42:10;-4.40;99.90
11087;DHT22;5597;47.588;9.642;2022-12-18T17:44:35;-4.40;99.90
11087;DHT22;5597;47.588;9.642;2022-12-18T17:47:01;-4.30;99.90
11087;DHT22;5597;47.588;9.642;2022-12-18T17:49:27;-4.30;99.90
11087;DHT22;5597;47.588;9.642;2022-12-18T17:51:53;-4.30;99.90